createdAt,value
2018-08-25T00:00:56.572Z,98.60
2018-08-25T00:01:56.993Z,98.60
2018-08-25T00:02:57.466Z,98.61
2018-08-25T00:03:57.941Z,98.60
2018-08-25T00:04:58.411Z,98.60
2018-08-25T00:05:58.888Z,98.62
2018-08-25T00:06:59.358Z,98.60
2018-08-25T00:07:59.832Z,98.60
2018-08-25T00:09:00.309Z,98.60
2018-08-25T00:10:00.779Z,98.62
2018-08-25T00:11:01.304Z,98.61
2018-08-25T00:12:01.726Z,98.58
2018-08-25T00:13:02.200Z,98.59
2018-08-25T00:14:02.677Z,98.63
2018-08-25T00:15:03.147Z,98.59
2018-08-25T00:16:03.621Z,98.58
2018-08-25T00:17:04.095Z,98.58
2018-08-25T00:18:04.570Z,98.59
2018-08-25T00:19:05.044Z,98.60
2018-08-25T00:20:05.518Z,98.60
2018-08-25T00:21:05.992Z,98.59
2018-08-25T00:22:06.670Z,98.60
2018-08-25T00:23:06.940Z,98.59
2018-08-25T00:24:07.413Z,98.59
2018-08-25T00:25:07.887Z,98.59
2018-08-25T00:26:08.411Z,98.58
2018-08-25T00:27:08.834Z,98.59
2018-08-25T00:28:09.309Z,98.61
2018-08-25T00:29:09.779Z,98.60
2018-08-25T00:30:10.253Z,98.60
2018-08-25T00:31:10.727Z,98.60
2018-08-25T00:32:11.198Z,98.61
2018-08-25T00:33:11.671Z,98.61
2018-08-25T00:34:12.144Z,98.61
2018-08-25T00:35:12.615Z,98.60
2018-08-25T00:36:13.087Z,98.60
2018-08-25T00:37:13.558Z,98.60
2018-08-25T00:38:14.029Z,98.60
2018-08-25T00:39:14.501Z,98.61
2018-08-25T00:40:14.974Z,98.59
2018-08-25T00:41:15.493Z,98.59
2018-08-25T00:42:15.912Z,98.62
2018-08-25T00:43:16.386Z,98.61
2018-08-25T00:44:16.854Z,98.62
2018-08-25T00:45:17.324Z,98.62
2018-08-25T00:46:17.796Z,98.62
2018-08-25T00:47:18.267Z,98.64
2018-08-25T00:48:18.738Z,98.64
2018-08-25T00:49:19.208Z,98.62
2018-08-25T00:50:19.676Z,98.61
2018-08-25T00:51:20.149Z,98.60
2018-08-25T00:52:20.619Z,98.59
2018-08-25T00:53:21.089Z,98.61
2018-08-25T00:54:21.558Z,98.63
2018-08-25T00:55:22.032Z,98.62
2018-08-25T00:56:22.501Z,98.62
2018-08-25T00:57:22.976Z,98.62
2018-08-25T00:58:23.442Z,98.62
2018-08-25T00:59:23.987Z,98.62
2018-08-25T01:00:24.384Z,98.58
2018-08-25T01:01:24.853Z,98.61
2018-08-25T01:02:25.325Z,98.62
2018-08-25T01:03:25.802Z,98.64
2018-08-25T01:04:26.267Z,98.63
2018-08-25T01:05:26.739Z,98.62
2018-08-25T01:06:27.213Z,98.62
2018-08-25T01:07:27.683Z,98.61
2018-08-25T01:08:28.155Z,98.61
2018-08-25T01:09:28.626Z,98.61
2018-08-25T01:10:29.098Z,98.60
2018-08-25T01:11:29.569Z,98.61
2018-08-25T01:12:30.044Z,98.61
2018-08-25T01:13:30.516Z,98.62
2018-08-25T01:14:30.987Z,98.64
2018-08-25T01:15:31.491Z,98.61
2018-08-25T01:16:31.935Z,98.59
2018-08-25T01:17:32.414Z,98.62
2018-08-25T01:18:32.885Z,98.61
2018-08-25T01:19:33.354Z,98.63
2018-08-25T01:20:33.826Z,98.63
2018-08-25T01:21:34.303Z,98.61
2018-08-25T01:22:34.775Z,98.61
2018-08-25T01:23:35.248Z,98.61
2018-08-25T01:24:35.723Z,98.62
2018-08-25T01:25:36.197Z,98.62
2018-08-25T01:26:36.669Z,98.61
2018-08-25T01:27:37.144Z,98.61
2018-08-25T01:28:37.620Z,98.62
2018-08-25T01:29:38.094Z,98.62
2018-08-25T01:30:38.569Z,98.62
2018-08-25T01:31:39.043Z,98.63
2018-08-25T01:32:39.516Z,98.63
2018-08-25T01:33:39.987Z,98.63
2018-08-25T01:34:40.463Z,98.62
2018-08-25T01:35:40.935Z,98.64
2018-08-25T01:36:41.409Z,98.64
2018-08-25T01:37:41.890Z,98.61
2018-08-25T01:38:42.357Z,98.62
2018-08-25T01:39:42.836Z,98.62
2018-08-25T01:40:43.304Z,98.62
2018-08-25T01:41:43.773Z,98.61
2018-08-25T01:42:44.461Z,98.65
2018-08-25T01:43:44.721Z,98.62
2018-08-25T01:44:45.194Z,98.66
2018-08-25T01:45:45.668Z,98.61
2018-08-25T01:46:46.135Z,98.62
2018-08-25T01:47:46.607Z,98.63
2018-08-25T01:48:47.080Z,98.60
2018-08-25T01:49:47.549Z,98.60
2018-08-25T01:50:48.021Z,98.63
2018-08-25T01:51:48.492Z,98.61
2018-08-25T01:52:48.963Z,98.62
2018-08-25T01:53:49.434Z,98.63
2018-08-25T01:54:49.909Z,98.63
2018-08-25T01:55:50.380Z,98.61
2018-08-25T01:56:50.897Z,98.61
2018-08-25T01:57:51.517Z,98.63
2018-08-25T01:58:51.787Z,98.64
2018-08-25T01:59:52.257Z,98.64
2018-08-25T02:00:52.727Z,98.64
2018-08-25T02:01:53.200Z,98.63
2018-08-25T02:02:53.695Z,98.63
2018-08-25T02:03:54.140Z,98.62
2018-08-25T02:04:54.610Z,98.62
2018-08-25T02:05:55.077Z,98.65
2018-08-25T02:06:55.548Z,98.64
2018-08-25T02:07:56.019Z,98.64
2018-08-25T02:08:56.489Z,98.64
2018-08-25T02:09:56.961Z,98.64
2018-08-25T02:10:57.432Z,98.63
2018-08-25T02:11:57.903Z,98.65
2018-08-25T02:12:58.375Z,98.63
2018-08-25T02:13:58.845Z,98.64
2018-08-25T02:14:59.317Z,98.64
2018-08-25T02:15:59.791Z,98.62
2018-08-25T02:17:00.261Z,98.63
2018-08-25T02:18:00.732Z,98.64
2018-08-25T02:19:01.204Z,98.64
2018-08-25T02:20:01.679Z,98.64
2018-08-25T02:21:02.151Z,98.67
2018-08-25T02:22:02.619Z,98.63
2018-08-25T02:23:03.093Z,98.66
2018-08-25T02:24:03.565Z,98.62
2018-08-25T02:25:04.038Z,98.64
2018-08-25T02:26:04.510Z,98.63
2018-08-25T02:27:05.035Z,98.59
2018-08-25T02:28:05.494Z,98.61
2018-08-25T02:29:05.929Z,98.61
2018-08-25T02:30:06.405Z,98.60
2018-08-25T02:31:06.878Z,98.63
2018-08-25T02:32:07.350Z,98.63
2018-08-25T02:33:07.823Z,98.60
2018-08-25T02:34:08.296Z,98.62
2018-08-25T02:35:08.771Z,98.64
2018-08-25T02:36:09.246Z,98.64
2018-08-25T02:37:09.720Z,98.62
2018-08-25T02:38:10.192Z,98.61
2018-08-25T02:39:10.672Z,98.62
2018-08-25T02:40:11.140Z,98.60
2018-08-25T02:41:11.615Z,98.62
2018-08-25T02:42:12.090Z,98.64
2018-08-25T02:43:12.561Z,98.59
2018-08-25T02:44:13.037Z,98.62
2018-08-25T02:45:13.510Z,98.63
2018-08-25T02:46:13.983Z,98.62
2018-08-25T02:47:14.456Z,98.61
2018-08-25T02:48:14.931Z,98.60
2018-08-25T02:49:15.403Z,98.63
2018-08-25T02:50:15.875Z,98.62
2018-08-25T02:51:16.348Z,98.62
2018-08-25T02:52:16.821Z,98.58
2018-08-25T02:53:17.294Z,98.66
2018-08-25T02:54:17.764Z,98.68
2018-08-25T02:55:18.239Z,98.66
2018-08-25T02:56:18.710Z,98.66
2018-08-25T02:57:19.182Z,98.69
2018-08-25T02:58:19.652Z,98.63
2018-08-25T02:59:20.329Z,98.64
2018-08-25T03:00:20.594Z,98.67
2018-08-25T03:01:21.068Z,98.64
2018-08-25T03:02:21.535Z,98.66
2018-08-25T03:03:22.008Z,98.66
2018-08-25T03:04:22.479Z,98.67
2018-08-25T03:05:22.949Z,98.66
2018-08-25T03:06:23.419Z,98.66
2018-08-25T03:07:23.888Z,98.67
2018-08-25T03:08:24.362Z,98.65
2018-08-25T03:09:24.830Z,98.66
2018-08-25T03:10:25.300Z,98.65
2018-08-25T03:11:25.770Z,98.67
2018-08-25T03:12:26.292Z,98.67
2018-08-25T03:13:26.711Z,98.67
2018-08-25T03:14:27.183Z,98.67
2018-08-25T03:15:27.652Z,98.67
2018-08-25T03:16:28.127Z,98.67
2018-08-25T03:17:28.593Z,98.64
2018-08-25T03:18:29.076Z,98.66
2018-08-25T03:19:29.536Z,98.66
2018-08-25T03:20:30.009Z,98.67
2018-08-25T03:21:30.474Z,98.67
2018-08-25T03:22:30.944Z,98.66
2018-08-25T03:23:31.416Z,98.66
2018-08-25T03:24:31.888Z,98.66
2018-08-25T03:25:32.366Z,98.66
2018-08-25T03:26:32.830Z,98.67
2018-08-25T03:27:33.301Z,98.66
2018-08-25T03:28:33.774Z,98.66
2018-08-25T03:29:34.246Z,98.66
2018-08-25T03:30:34.717Z,98.66
2018-08-25T03:31:35.189Z,98.66
2018-08-25T03:32:35.662Z,98.66
2018-08-25T03:33:36.134Z,98.66
2018-08-25T03:34:36.605Z,98.66
2018-08-25T03:35:37.077Z,98.64
2018-08-25T03:36:37.554Z,98.69
2018-08-25T03:37:38.029Z,98.64
2018-08-25T03:38:38.496Z,98.67
2018-08-25T03:39:38.971Z,98.69
2018-08-25T03:40:39.445Z,98.69
2018-08-25T03:41:39.918Z,98.69
2018-08-25T03:42:40.392Z,98.68
2018-08-25T03:43:40.865Z,98.65
2018-08-25T03:44:41.337Z,98.65
2018-08-25T03:45:41.813Z,98.69
2018-08-25T03:46:42.284Z,98.68
2018-08-25T03:47:42.964Z,98.67
2018-08-25T03:48:43.233Z,98.67
2018-08-25T03:49:43.707Z,98.64
2018-08-25T03:50:44.181Z,98.67
2018-08-25T03:51:44.660Z,98.67
2018-08-25T03:52:45.129Z,98.68
2018-08-25T03:53:45.604Z,98.63
2018-08-25T03:54:46.079Z,98.60
2018-08-25T03:55:46.553Z,98.67
2018-08-25T03:56:47.025Z,98.70
2018-08-25T03:57:47.497Z,98.66
2018-08-25T03:58:47.971Z,98.68
2018-08-25T03:59:48.449Z,98.67
2018-08-25T04:00:48.918Z,98.67
2018-08-25T04:01:49.392Z,98.67
2018-08-25T04:02:49.863Z,98.66
2018-08-25T04:04:50.811Z,98.68
2018-08-25T04:05:51.287Z,98.68
2018-08-25T04:06:51.754Z,98.67
2018-08-25T04:07:52.224Z,98.66
2018-08-25T04:08:52.698Z,98.66
2018-08-25T04:09:53.167Z,98.66
2018-08-25T04:10:53.636Z,98.67
2018-08-25T04:11:54.107Z,98.67
2018-08-25T04:12:54.580Z,98.67
2018-08-25T04:13:55.051Z,98.67
2018-08-25T04:14:55.545Z,98.70
2018-08-25T04:15:55.990Z,98.66
2018-08-25T04:16:56.463Z,98.66
2018-08-25T04:17:56.934Z,98.67
2018-08-25T04:18:57.403Z,98.66
2018-08-25T04:19:57.872Z,98.66
2018-08-25T04:20:58.342Z,98.62
2018-08-25T04:21:58.813Z,98.66
2018-08-25T04:22:59.287Z,98.69
2018-08-25T04:23:59.756Z,98.67
2018-08-25T04:25:00.233Z,98.69
2018-08-25T04:26:00.695Z,98.70
2018-08-25T04:27:01.164Z,98.66
2018-08-25T04:28:01.636Z,98.69
2018-08-25T04:29:02.104Z,98.66
2018-08-25T04:30:02.576Z,98.71
2018-08-25T04:31:03.047Z,98.70
2018-08-25T04:32:03.519Z,98.70
2018-08-25T04:33:03.987Z,98.70
2018-08-25T04:34:04.458Z,98.70
2018-08-25T04:35:04.928Z,98.69
2018-08-25T04:36:05.405Z,98.70
2018-08-25T04:37:05.874Z,98.70
2018-08-25T04:38:06.343Z,98.69
2018-08-25T04:39:06.816Z,98.73
2018-08-25T04:40:07.284Z,98.70
2018-08-25T04:41:07.826Z,98.71
2018-08-25T04:42:08.230Z,98.71
2018-08-25T04:43:08.751Z,98.71
2018-08-25T04:44:09.173Z,98.71
2018-08-25T04:45:09.644Z,98.71
2018-08-25T04:46:10.118Z,98.71
2018-08-25T04:47:10.590Z,98.71
2018-08-25T04:48:11.064Z,98.72
2018-08-25T04:49:11.739Z,98.72
2018-08-25T04:50:12.008Z,98.73
2018-08-25T04:51:12.482Z,98.73
2018-08-25T04:52:12.958Z,98.70
2018-08-25T04:53:13.480Z,98.70
2018-08-25T04:54:13.900Z,98.70
2018-08-25T04:55:14.375Z,98.67
2018-08-25T04:56:14.848Z,98.69
2018-08-25T04:57:15.322Z,98.69
2018-08-25T04:58:15.797Z,98.70
2018-08-25T04:59:16.269Z,98.67
2018-08-25T05:00:16.745Z,98.67
2018-08-25T05:01:17.220Z,98.69
2018-08-25T05:02:17.692Z,98.66
2018-08-25T05:03:18.216Z,98.65
2018-08-25T05:04:18.640Z,98.64
2018-08-25T05:05:19.115Z,98.65
2018-08-25T05:06:19.589Z,98.67
2018-08-25T05:07:20.058Z,98.68
2018-08-25T05:08:20.535Z,98.67
2018-08-25T05:09:21.008Z,98.67
2018-08-25T05:10:21.480Z,98.65
2018-08-25T05:11:21.955Z,98.65
2018-08-25T05:12:22.427Z,98.68
2018-08-25T05:13:22.903Z,98.68
2018-08-25T05:14:23.372Z,98.68
2018-08-25T05:15:23.844Z,98.69
2018-08-25T05:16:24.315Z,98.67
2018-08-25T05:17:24.790Z,98.67
2018-08-25T05:18:25.260Z,98.65
2018-08-25T05:19:25.730Z,98.66
2018-08-25T05:20:26.202Z,98.66
2018-08-25T05:21:26.672Z,98.70
2018-08-25T05:22:27.144Z,98.68
2018-08-25T05:23:27.614Z,98.65
2018-08-25T05:24:28.085Z,98.65
2018-08-25T05:25:28.556Z,98.65
2018-08-25T05:26:29.028Z,98.68
2018-08-25T05:27:29.496Z,98.64
2018-08-25T05:28:29.968Z,98.68
2018-08-25T05:29:30.437Z,98.68
2018-08-25T05:30:30.910Z,98.68
2018-08-25T05:31:31.379Z,98.67
2018-08-25T05:32:31.848Z,98.67
2018-08-25T05:33:32.318Z,98.67
2018-08-25T05:34:32.788Z,98.66
2018-08-25T05:35:33.256Z,98.74
2018-08-25T05:36:33.728Z,98.68
2018-08-25T05:37:34.199Z,98.65
2018-08-25T05:38:34.668Z,98.64
2018-08-25T05:39:35.139Z,98.69
2018-08-25T05:40:35.609Z,98.70
2018-08-25T05:41:36.080Z,98.71
2018-08-25T05:42:36.551Z,98.70
2018-08-25T05:43:37.024Z,98.67
2018-08-25T05:44:37.490Z,98.67
2018-08-25T05:45:37.964Z,98.70
2018-08-25T05:46:38.435Z,98.66
2018-08-25T05:47:38.904Z,98.65
2018-08-25T05:48:39.377Z,98.68
2018-08-25T05:49:39.847Z,98.69
2018-08-25T05:50:40.320Z,98.65
2018-08-25T05:51:40.792Z,98.64
2018-08-25T05:52:41.266Z,98.70
2018-08-25T05:53:41.733Z,98.62
2018-08-25T05:54:42.218Z,98.67
2018-08-25T05:55:42.685Z,98.72
2018-08-25T05:56:43.155Z,98.70
2018-08-25T05:57:43.686Z,98.66
2018-08-25T05:58:44.095Z,98.66
2018-08-25T05:59:44.569Z,98.62
2018-08-25T06:00:45.040Z,98.72
2018-08-25T06:01:45.525Z,98.66
2018-08-25T06:02:45.987Z,98.66
2018-08-25T06:03:46.460Z,98.67
2018-08-25T06:04:46.932Z,98.65
2018-08-25T06:05:47.411Z,98.69
2018-08-25T06:06:47.879Z,98.69
2018-08-25T06:07:48.351Z,98.64
2018-08-25T06:08:48.826Z,98.64
2018-08-25T06:09:49.298Z,98.67
2018-08-25T06:10:49.775Z,98.67
2018-08-25T06:11:50.247Z,98.74
2018-08-25T06:12:50.721Z,98.66
2018-08-25T06:13:51.194Z,98.67
2018-08-25T06:14:51.669Z,98.67
2018-08-25T06:15:52.141Z,98.64
2018-08-25T06:16:52.616Z,98.66
2018-08-25T06:17:53.089Z,98.73
2018-08-25T06:18:53.567Z,98.67
2018-08-25T06:19:54.037Z,98.64
2018-08-25T06:20:54.510Z,98.67
2018-08-25T06:21:54.984Z,98.68
2018-08-25T06:22:55.456Z,98.69
2018-08-25T06:23:55.929Z,98.70
2018-08-25T06:24:56.402Z,98.63
2018-08-25T06:25:56.876Z,98.66
2018-08-25T06:26:57.551Z,98.62
2018-08-25T06:27:57.821Z,98.66
2018-08-25T06:28:58.297Z,98.69
2018-08-25T06:29:58.798Z,98.65
2018-08-25T06:30:59.242Z,98.69
2018-08-25T06:31:59.708Z,98.65
2018-08-25T06:33:00.181Z,98.66
2018-08-25T06:34:00.653Z,98.64
2018-08-25T06:35:01.131Z,98.66
2018-08-25T06:36:01.638Z,98.69
2018-08-25T06:37:02.065Z,98.68
2018-08-25T06:38:02.536Z,98.68
2018-08-25T06:39:03.012Z,98.71
2018-08-25T06:40:03.489Z,98.68
2018-08-25T06:41:03.947Z,98.70
2018-08-25T06:42:04.419Z,98.70
2018-08-25T06:43:04.889Z,98.70
2018-08-25T06:44:05.365Z,98.72
2018-08-25T06:45:05.828Z,98.69
2018-08-25T06:46:06.301Z,98.63
2018-08-25T06:47:06.769Z,98.67
2018-08-25T06:48:07.239Z,98.60
2018-08-25T06:49:07.759Z,98.70
2018-08-25T06:50:08.179Z,98.68
2018-08-25T06:51:08.649Z,98.68
2018-08-25T06:52:09.118Z,98.64
2018-08-25T06:53:09.611Z,98.69
2018-08-25T06:54:10.058Z,98.70
2018-08-25T06:55:10.530Z,98.73
2018-08-25T06:56:10.998Z,98.68
2018-08-25T06:57:11.468Z,98.70
2018-08-25T06:58:11.942Z,98.66
2018-08-25T06:59:12.413Z,98.65
2018-08-25T07:00:12.882Z,98.70
2018-08-25T07:01:13.355Z,98.69
2018-08-25T07:02:13.826Z,98.64
2018-08-25T07:03:14.297Z,98.65
2018-08-25T07:04:14.766Z,98.69
2018-08-25T07:05:15.237Z,98.69
2018-08-25T07:06:15.709Z,98.72
2018-08-25T07:07:16.182Z,98.69
2018-08-25T07:08:16.650Z,98.68
2018-08-25T07:09:17.125Z,98.68
2018-08-25T07:10:17.596Z,98.69
2018-08-25T07:11:18.069Z,98.70
2018-08-25T07:12:18.548Z,98.75
2018-08-25T07:13:19.012Z,98.69
2018-08-25T07:14:19.487Z,98.65
2018-08-25T07:15:19.955Z,98.69
2018-08-25T07:16:20.428Z,98.69
2018-08-25T07:17:20.903Z,98.68
2018-08-25T07:18:21.377Z,98.67
2018-08-25T07:19:21.849Z,98.73
2018-08-25T07:20:22.321Z,98.72
2018-08-25T07:21:22.794Z,98.68
2018-08-25T07:22:23.266Z,98.67
2018-08-25T07:23:23.740Z,98.76
2018-08-25T07:24:24.214Z,98.68
2018-08-25T07:25:24.690Z,98.72
2018-08-25T07:26:25.161Z,98.72
2018-08-25T07:27:25.635Z,98.72
2018-08-25T07:28:26.108Z,98.78
2018-08-25T07:29:26.581Z,98.67
2018-08-25T07:30:27.055Z,98.74
2018-08-25T07:31:27.532Z,98.71
2018-08-25T07:32:28.005Z,98.68
2018-08-25T07:33:28.479Z,98.70
2018-08-25T07:34:28.953Z,98.65
2018-08-25T07:35:29.427Z,98.73
2018-08-25T07:36:29.898Z,98.74
2018-08-25T07:37:30.375Z,98.68
2018-08-25T07:38:30.848Z,98.67
2018-08-25T07:39:31.323Z,98.72
2018-08-25T07:40:31.795Z,98.73
2018-08-25T07:41:32.268Z,98.69
2018-08-25T07:42:32.741Z,98.70
2018-08-25T07:43:33.213Z,98.69
2018-08-25T07:44:33.688Z,98.74
2018-08-25T07:45:34.160Z,98.72
2018-08-25T07:46:34.632Z,98.65
2018-08-25T07:47:35.105Z,98.72
2018-08-25T07:48:35.629Z,98.72
2018-08-25T07:49:36.093Z,98.69
2018-08-25T07:50:36.519Z,98.73
2018-08-25T07:51:36.991Z,98.64
2018-08-25T07:52:37.471Z,98.70
2018-08-25T07:53:37.997Z,98.71
2018-08-25T07:54:38.404Z,98.71
2018-08-25T07:55:38.876Z,98.69
2018-08-25T07:56:39.345Z,98.70
2018-08-25T07:57:39.823Z,98.72
2018-08-25T07:58:40.351Z,98.73
2018-08-25T07:59:40.757Z,98.73
2018-08-25T08:00:41.228Z,98.73
2018-08-25T08:01:41.698Z,98.71
2018-08-25T08:02:42.170Z,98.76
2018-08-25T08:03:42.640Z,98.74
2018-08-25T08:04:43.119Z,98.74
2018-08-25T08:05:43.582Z,98.74
2018-08-25T08:06:44.049Z,98.71
2018-08-25T08:07:44.523Z,98.73
2018-08-25T08:08:44.989Z,98.74
2018-08-25T08:09:45.462Z,98.70
2018-08-25T08:10:45.934Z,98.73
2018-08-25T08:11:46.453Z,98.74
2018-08-25T08:12:46.875Z,98.76
2018-08-25T08:13:47.344Z,98.79
2018-08-25T08:14:47.818Z,98.77
2018-08-25T08:15:48.288Z,98.75
2018-08-25T08:16:48.757Z,98.76
2018-08-25T08:17:49.230Z,98.76
2018-08-25T08:18:49.701Z,98.74
2018-08-25T08:19:50.174Z,98.74
2018-08-25T08:20:50.644Z,98.75
2018-08-25T08:21:51.117Z,98.75
2018-08-25T08:22:51.589Z,98.75
2018-08-25T08:23:52.062Z,98.75
2018-08-25T08:24:52.533Z,98.75
2018-08-25T08:25:53.005Z,98.77
2018-08-25T08:26:53.479Z,98.77
2018-08-25T08:27:53.953Z,98.75
2018-08-25T08:28:54.424Z,98.74
2018-08-25T08:29:54.899Z,98.77
2018-08-25T08:30:55.371Z,98.77
2018-08-25T08:31:55.845Z,98.80
2018-08-25T08:32:56.344Z,98.75
2018-08-25T08:33:56.791Z,98.74
2018-08-25T08:34:57.268Z,98.77
2018-08-25T08:35:57.741Z,98.76
2018-08-25T08:36:58.212Z,98.75
2018-08-25T08:37:58.688Z,98.74
2018-08-25T08:38:59.162Z,98.74
2018-08-25T08:39:59.639Z,98.72
2018-08-25T08:41:00.110Z,98.79
2018-08-25T08:42:00.585Z,98.75
2018-08-25T08:43:01.060Z,98.77
2018-08-25T08:44:01.534Z,98.73
2018-08-25T08:45:02.007Z,98.76
2018-08-25T08:46:02.483Z,98.76
2018-08-25T08:47:02.958Z,98.76
2018-08-25T08:48:03.430Z,98.74
2018-08-25T08:49:03.906Z,98.75
2018-08-25T08:50:04.436Z,98.77
2018-08-25T08:51:04.849Z,98.78
2018-08-25T08:52:05.325Z,98.77
2018-08-25T08:53:05.797Z,98.77
2018-08-25T08:54:06.268Z,98.78
2018-08-25T08:55:06.742Z,98.77
2018-08-25T08:56:07.216Z,98.76
2018-08-25T08:57:07.686Z,98.75
2018-08-25T08:58:08.181Z,98.80
2018-08-25T08:59:08.632Z,98.77
2018-08-25T09:00:09.103Z,98.79
2018-08-25T09:01:09.575Z,98.78
2018-08-25T09:02:10.047Z,98.80
2018-08-25T09:03:10.517Z,98.77
2018-08-25T09:04:10.990Z,98.77
2018-08-25T09:05:11.461Z,98.79
2018-08-25T09:06:11.930Z,98.78
2018-08-25T09:07:12.404Z,98.77
2018-08-25T09:08:12.873Z,98.79
2018-08-25T09:09:13.342Z,98.78
2018-08-25T09:10:13.814Z,98.73
2018-08-25T09:11:14.328Z,98.76
2018-08-25T09:12:14.756Z,98.77
2018-08-25T09:13:15.227Z,98.78
2018-08-25T09:14:15.702Z,98.80
2018-08-25T09:15:16.168Z,98.75
2018-08-25T09:16:16.638Z,98.75
2018-08-25T09:17:17.111Z,98.79
2018-08-25T09:18:17.580Z,98.76
2018-08-25T09:19:18.108Z,98.71
2018-08-25T09:20:18.521Z,98.71
2018-08-25T09:21:18.991Z,98.69
2018-08-25T09:22:19.463Z,98.73
2018-08-25T09:23:19.936Z,98.78
2018-08-25T09:24:20.406Z,98.75
2018-08-25T09:25:20.878Z,98.73
2018-08-25T09:26:21.348Z,98.75
2018-08-25T09:27:21.861Z,98.79
2018-08-25T09:28:22.300Z,98.73
2018-08-25T09:29:22.767Z,98.76
2018-08-25T09:30:23.240Z,98.78
2018-08-25T09:31:23.713Z,98.75
2018-08-25T09:32:24.183Z,98.74
2018-08-25T09:33:24.658Z,98.78
2018-08-25T09:34:25.148Z,98.76
2018-08-25T09:35:25.602Z,98.77
2018-08-25T09:36:26.095Z,98.76
2018-08-25T09:37:26.547Z,98.71
2018-08-25T09:38:27.021Z,98.76
2018-08-25T09:39:27.495Z,98.75
2018-08-25T09:40:27.971Z,98.76
2018-08-25T09:41:28.445Z,98.77
2018-08-25T09:42:28.919Z,98.79
2018-08-25T09:43:29.393Z,98.79
2018-08-25T09:44:29.867Z,98.78
2018-08-25T09:45:30.343Z,98.81
2018-08-25T09:46:30.818Z,98.81
2018-08-25T09:47:31.292Z,98.79
2018-08-25T09:48:31.769Z,98.74
2018-08-25T09:49:32.241Z,98.73
2018-08-25T09:50:32.716Z,98.72
2018-08-25T09:51:33.191Z,98.77
2018-08-25T09:52:33.664Z,98.80
2018-08-25T09:53:34.307Z,98.76
2018-08-25T09:54:34.614Z,98.78
2018-08-25T09:55:35.089Z,98.76
2018-08-25T09:56:35.564Z,98.78
2018-08-25T09:57:36.037Z,98.76
2018-08-25T09:58:36.511Z,98.79
2018-08-25T09:59:36.985Z,98.77
2018-08-25T10:00:37.483Z,98.77
2018-08-25T10:01:37.934Z,98.74
2018-08-25T10:02:38.405Z,98.78
2018-08-25T10:03:38.879Z,98.76
2018-08-25T10:04:39.353Z,98.76
2018-08-25T10:05:39.824Z,98.76
2018-08-25T10:06:40.298Z,98.77
2018-08-25T10:07:40.771Z,98.77
2018-08-25T10:08:41.244Z,98.76
2018-08-25T10:09:41.715Z,98.78
2018-08-25T10:10:42.223Z,98.76
2018-08-25T10:11:42.662Z,98.76
2018-08-25T10:12:43.136Z,98.73
2018-08-25T10:13:43.602Z,98.73
2018-08-25T10:14:44.076Z,98.71
2018-08-25T10:15:44.549Z,98.77
2018-08-25T10:16:45.029Z,98.75
2018-08-25T10:17:45.488Z,98.76
2018-08-25T10:18:45.958Z,98.66
2018-08-25T10:19:46.430Z,98.64
2018-08-25T10:20:46.904Z,98.63
2018-08-25T10:21:47.374Z,98.60
2018-08-25T10:22:47.842Z,98.68
2018-08-25T10:23:48.315Z,98.61
2018-08-25T10:24:48.787Z,98.68
2018-08-25T10:25:49.256Z,98.68
2018-08-25T10:26:49.727Z,98.65
2018-08-25T10:27:50.197Z,98.67
2018-08-25T10:28:50.694Z,98.71
2018-08-25T10:29:51.142Z,98.67
2018-08-25T10:30:51.609Z,98.71
2018-08-25T10:31:52.081Z,98.70
2018-08-25T10:32:52.552Z,98.69
2018-08-25T10:33:53.025Z,98.68
2018-08-25T10:34:53.499Z,98.69
2018-08-25T10:35:53.969Z,98.66
2018-08-25T10:36:54.439Z,98.71
2018-08-25T10:37:54.919Z,98.72
2018-08-25T10:38:55.383Z,98.70
2018-08-25T10:39:55.855Z,98.69
2018-08-25T10:40:56.379Z,98.73
2018-08-25T10:41:56.864Z,98.74
2018-08-25T10:42:57.275Z,98.74
2018-08-25T10:43:57.747Z,98.77
2018-08-25T10:44:58.237Z,98.73
2018-08-25T10:45:58.693Z,98.72
2018-08-25T10:46:59.170Z,98.73
2018-08-25T10:47:59.677Z,98.70
2018-08-25T10:49:00.114Z,98.71
2018-08-25T10:50:00.589Z,98.74
2018-08-25T10:51:01.062Z,98.72
2018-08-25T10:52:01.537Z,98.74
2018-08-25T10:53:02.013Z,98.73
2018-08-25T10:54:02.539Z,98.70
2018-08-25T10:55:02.961Z,98.70
2018-08-25T10:56:03.437Z,98.77
2018-08-25T10:57:03.911Z,98.73
2018-08-25T10:58:04.388Z,98.72
2018-08-25T10:59:04.868Z,98.75
2018-08-25T11:00:05.404Z,98.76
2018-08-25T11:01:05.831Z,98.74
2018-08-25T11:02:06.287Z,98.74
2018-08-25T11:03:06.759Z,98.75
2018-08-25T11:04:07.234Z,98.72
2018-08-25T11:05:07.709Z,98.74
2018-08-25T11:06:08.188Z,98.72
2018-08-25T11:07:08.663Z,98.73
2018-08-25T11:08:09.131Z,98.74
2018-08-25T11:09:09.606Z,98.74
2018-08-25T11:10:10.084Z,98.76
2018-08-25T11:11:10.553Z,98.73
2018-08-25T11:12:11.028Z,98.75
2018-08-25T11:13:11.499Z,98.75
2018-08-25T11:14:11.977Z,98.75
2018-08-25T11:15:12.448Z,98.75
2018-08-25T11:16:12.920Z,98.76
2018-08-25T11:17:13.394Z,98.76
2018-08-25T11:18:13.864Z,98.76
2018-08-25T11:19:14.339Z,98.79
2018-08-25T11:20:14.811Z,98.77
2018-08-25T11:21:15.284Z,98.75
2018-08-25T11:22:15.755Z,98.73
2018-08-25T11:23:16.227Z,98.74
2018-08-25T11:24:16.699Z,98.69
2018-08-25T11:25:17.170Z,98.72
2018-08-25T11:26:17.642Z,98.75
2018-08-25T11:27:18.112Z,98.76
2018-08-25T11:28:18.587Z,98.75
2018-08-25T11:29:19.090Z,98.78
2018-08-25T11:30:19.528Z,98.77
2018-08-25T11:31:20.000Z,98.74
2018-08-25T11:32:20.472Z,98.70
2018-08-25T11:33:20.945Z,98.71
2018-08-25T11:34:21.412Z,98.73
2018-08-25T11:35:21.883Z,98.72
2018-08-25T11:36:22.354Z,98.71
2018-08-25T11:37:22.909Z,98.74
2018-08-25T11:38:23.294Z,98.77
2018-08-25T11:39:23.767Z,98.75
2018-08-25T11:40:24.237Z,98.75
2018-08-25T11:41:24.710Z,98.75
2018-08-25T11:42:25.187Z,98.70
2018-08-25T11:43:25.650Z,98.66
2018-08-25T11:44:26.123Z,98.70
2018-08-25T11:45:26.596Z,98.70
2018-08-25T11:46:27.066Z,98.72
2018-08-25T11:47:27.537Z,98.72
2018-08-25T11:48:28.012Z,98.70
2018-08-25T11:49:28.481Z,98.70
2018-08-25T11:50:28.956Z,98.65
2018-08-25T11:51:29.426Z,98.66
2018-08-25T11:52:29.900Z,98.69
2018-08-25T11:53:30.372Z,98.69
2018-08-25T11:54:30.847Z,98.71
2018-08-25T11:55:31.319Z,98.72
2018-08-25T11:56:31.794Z,98.72
2018-08-25T11:57:32.269Z,98.72
2018-08-25T11:58:32.739Z,98.72
2018-08-25T11:59:33.215Z,98.75
2018-08-25T12:00:33.689Z,98.70
2018-08-25T12:01:34.164Z,98.71
2018-08-25T12:02:34.636Z,98.75
2018-08-25T12:03:35.132Z,98.74
2018-08-25T12:04:35.594Z,98.73
2018-08-25T12:05:36.061Z,98.69
2018-08-25T12:06:36.537Z,98.71
2018-08-25T12:07:37.012Z,98.66
2018-08-25T12:08:37.490Z,98.67
2018-08-25T12:09:38.067Z,98.67
2018-08-25T12:10:38.438Z,98.73
2018-08-25T12:11:38.914Z,98.71
2018-08-25T12:12:39.387Z,98.72
2018-08-25T12:13:39.863Z,98.70
2018-08-25T12:14:40.336Z,98.71
2018-08-25T12:15:40.811Z,98.72
2018-08-25T12:16:41.285Z,98.70
2018-08-25T12:17:41.762Z,98.69
2018-08-25T12:18:42.235Z,98.68
2018-08-25T12:19:42.711Z,98.69
2018-08-25T12:20:43.182Z,98.71
2018-08-25T12:21:43.658Z,98.73
2018-08-25T12:22:44.131Z,98.72
2018-08-25T12:23:44.606Z,98.72
2018-08-25T12:24:45.081Z,98.68
2018-08-25T12:25:45.894Z,98.68
2018-08-25T12:26:46.025Z,98.70
2018-08-25T12:27:46.499Z,98.67
2018-08-25T12:28:46.973Z,98.70
2018-08-25T12:29:47.444Z,98.71
2018-08-25T12:30:47.917Z,98.69
2018-08-25T12:31:48.392Z,98.68
2018-08-25T12:32:48.865Z,98.68
2018-08-25T12:33:49.336Z,98.69
2018-08-25T12:34:49.806Z,98.71
2018-08-25T12:35:50.280Z,98.71
2018-08-25T12:36:50.753Z,98.70
2018-08-25T12:37:51.226Z,98.70
2018-08-25T12:38:51.695Z,98.70
2018-08-25T12:39:52.168Z,98.69
2018-08-25T12:40:52.641Z,98.66
2018-08-25T12:41:53.121Z,98.65
2018-08-25T12:42:53.582Z,98.68
2018-08-25T12:43:54.052Z,98.60
2018-08-25T12:44:54.542Z,98.61
2018-08-25T12:45:54.995Z,98.61
2018-08-25T12:46:55.470Z,98.62
2018-08-25T12:47:55.937Z,98.64
2018-08-25T12:48:56.437Z,98.64
2018-08-25T12:49:56.880Z,98.62
2018-08-25T12:50:57.350Z,98.62
2018-08-25T12:51:57.859Z,98.62
2018-08-25T12:52:58.292Z,98.62
2018-08-25T12:53:58.766Z,98.62
2018-08-25T12:54:59.233Z,98.64
2018-08-25T12:55:59.705Z,98.68
2018-08-25T12:57:00.177Z,98.68
2018-08-25T12:58:00.696Z,98.62
2018-08-25T12:59:01.123Z,98.64
2018-08-25T13:00:01.593Z,98.67